sensor_id;sensor_type;location;lat;lon;timestamp;P1;durP1;ratioP1;P2;durP2;ratioP2
22937;SDS011;11634;42.734;23.298;2022-09-29T00:01:32;2.03;;;1.80;;
22937;SDS011;11634;42.734;23.298;2022-09-29T00:03:57;6.25;;;2.15;;
22937;SDS011;11634;42.734;23.298;2022-09-29T00:06:23;2.97;;;2.00;;
22937;SDS011;11634;42.734;23.298;2022-09-29T00:08:49;6.20;;;2.10;;
22937;SDS011;11634;42.734;23.298;2022-09-29T00:11:17;4.28;;;1.90;;
22937;SDS011;11634;42.734;23.298;2022-09-29T00:13:43;4.43;;;1.95;;
22937;SDS011;11634;42.734;23.298;2022-09-29T00:16:09;3.10;;;1.98;;
22937;SDS011;11634;42.734;23.298;2022-09-29T00:18:34;2.50;;;1.80;;
22937;SDS011;11634;42.734;23.298;2022-09-29T00:21:01;3.60;;;1.92;;
22937;SDS011;11634;42.734;23.298;2022-09-29T00:23:28;4.47;;;2.00;;
22937;SDS011;11634;42.734;23.298;2022-09-29T00:25:58;3.85;;;2.15;;
22937;SDS011;11634;42.734;23.298;2022-09-29T00:28:23;5.80;;;2.83;;
22937;SDS011;11634;42.734;23.298;2022-09-29T00:30:48;4.15;;;2.13;;
22937;SDS011;11634;42.734;23.298;2022-09-29T00:33:14;3.97;;;2.30;;
22937;SDS011;11634;42.734;23.298;2022-09-29T00:35:39;3.33;;;1.95;;
22937;SDS011;11634;42.734;23.298;2022-09-29T00:38:05;4.05;;;2.10;;
22937;SDS011;11634;42.734;23.298;2022-09-29T00:40:30;3.10;;;1.90;;
22937;SDS011;11634;42.734;23.298;2022-09-29T00:42:55;4.55;;;2.13;;
22937;SDS011;11634;42.734;23.298;2022-09-29T00:45:21;2.40;;;1.58;;
22937;SDS011;11634;42.734;23.298;2022-09-29T00:47:52;2.42;;;2.22;;
22937;SDS011;11634;42.734;23.298;2022-09-29T00:50:25;2.13;;;1.92;;
22937;SDS011;11634;42.734;23.298;2022-09-29T00:52:53;2.67;;;1.85;;
22937;SDS011;11634;42.734;23.298;2022-09-29T00:55:36;6.25;;;2.30;;
22937;SDS011;11634;42.734;23.298;2022-09-29T01:00:38;4.53;;;1.92;;
22937;SDS011;11634;42.734;23.298;2022-09-29T01:03:04;3.40;;;2.10;;
22937;SDS011;11634;42.734;23.298;2022-09-29T01:05:33;5.82;;;2.33;;
22937;SDS011;11634;42.734;23.298;2022-09-29T01:08:01;2.38;;;2.03;;
22937;SDS011;11634;42.734;23.298;2022-09-29T01:10:30;3.55;;;2.15;;
22937;SDS011;11634;42.734;23.298;2022-09-29T01:12:55;4.90;;;2.20;;
22937;SDS011;11634;42.734;23.298;2022-09-29T01:15:22;3.65;;;2.55;;
22937;SDS011;11634;42.734;23.298;2022-09-29T01:17:48;3.63;;;2.13;;
22937;SDS011;11634;42.734;23.298;2022-09-29T01:20:17;3.45;;;2.15;;
22937;SDS011;11634;42.734;23.298;2022-09-29T01:25:50;4.38;;;2.30;;
22937;SDS011;11634;42.734;23.298;2022-09-29T01:33:23;3.75;;;2.05;;
22937;SDS011;11634;42.734;23.298;2022-09-29T01:40:56;2.88;;;2.30;;
22937;SDS011;11634;42.734;23.298;2022-09-29T01:43:23;6.68;;;3.13;;
22937;SDS011;11634;42.734;23.298;2022-09-29T01:45:50;5.18;;;1.95;;
22937;SDS011;11634;42.734;23.298;2022-09-29T01:48:18;4.57;;;2.08;;
22937;SDS011;11634;42.734;23.298;2022-09-29T01:50:48;7.15;;;2.50;;
22937;SDS011;11634;42.734;23.298;2022-09-29T01:53:17;5.20;;;2.53;;
22937;SDS011;11634;42.734;23.298;2022-09-29T01:55:46;4.15;;;2.08;;
22937;SDS011;11634;42.734;23.298;2022-09-29T01:58:14;5.53;;;2.35;;
22937;SDS011;11634;42.734;23.298;2022-09-29T02:00:42;3.67;;;2.58;;
22937;SDS011;11634;42.734;23.298;2022-09-29T02:06:00;3.88;;;2.50;;
22937;SDS011;11634;42.734;23.298;2022-09-29T02:08:36;4.53;;;2.20;;
22937;SDS011;11634;42.734;23.298;2022-09-29T02:11:03;3.80;;;2.20;;
22937;SDS011;11634;42.734;23.298;2022-09-29T02:13:34;4.40;;;2.45;;
22937;SDS011;11634;42.734;23.298;2022-09-29T02:16:15;3.63;;;2.67;;
22937;SDS011;11634;42.734;23.298;2022-09-29T02:18:43;4.32;;;2.53;;
22937;SDS011;11634;42.734;23.298;2022-09-29T02:21:11;5.70;;;2.35;;
22937;SDS011;11634;42.734;23.298;2022-09-29T02:23:37;2.90;;;2.03;;
22937;SDS011;11634;42.734;23.298;2022-09-29T02:26:02;2.80;;;2.10;;
22937;SDS011;11634;42.734;23.298;2022-09-29T02:28:28;9.60;;;2.38;;
22937;SDS011;11634;42.734;23.298;2022-09-29T02:30:53;7.63;;;2.72;;
22937;SDS011;11634;42.734;23.298;2022-09-29T02:33:20;5.43;;;2.17;;
22937;SDS011;11634;42.734;23.298;2022-09-29T02:36:12;6.63;;;3.00;;
22937;SDS011;11634;42.734;23.298;2022-09-29T02:38:34;3.58;;;2.80;;
22937;SDS011;11634;42.734;23.298;2022-09-29T02:41:05;5.40;;;2.85;;
22937;SDS011;11634;42.734;23.298;2022-09-29T02:43:47;7.35;;;3.33;;
22937;SDS011;11634;42.734;23.298;2022-09-29T02:46:20;5.78;;;3.33;;
22937;SDS011;11634;42.734;23.298;2022-09-29T02:48:58;5.45;;;2.67;;
22937;SDS011;11634;42.734;23.298;2022-09-29T02:51:30;9.82;;;3.45;;
22937;SDS011;11634;42.734;23.298;2022-09-29T02:56:43;8.18;;;3.90;;
22937;SDS011;11634;42.734;23.298;2022-09-29T02:59:15;6.82;;;2.80;;
22937;SDS011;11634;42.734;23.298;2022-09-29T03:01:46;7.20;;;2.35;;
22937;SDS011;11634;42.734;23.298;2022-09-29T03:04:12;4.90;;;2.67;;
22937;SDS011;11634;42.734;23.298;2022-09-29T03:06:37;3.08;;;1.70;;
22937;SDS011;11634;42.734;23.298;2022-09-29T03:09:03;5.63;;;1.95;;
22937;SDS011;11634;42.734;23.298;2022-09-29T03:11:28;3.47;;;2.13;;
22937;SDS011;11634;42.734;23.298;2022-09-29T03:13:53;3.92;;;2.25;;
22937;SDS011;11634;42.734;23.298;2022-09-29T03:16:19;5.35;;;2.20;;
22937;SDS011;11634;42.734;23.298;2022-09-29T03:18:44;6.18;;;2.03;;
22937;SDS011;11634;42.734;23.298;2022-09-29T03:21:10;6.90;;;2.65;;
22937;SDS011;11634;42.734;23.298;2022-09-29T03:23:38;3.55;;;2.90;;
22937;SDS011;11634;42.734;23.298;2022-09-29T03:26:03;3.53;;;2.60;;
22937;SDS011;11634;42.734;23.298;2022-09-29T03:28:29;5.90;;;2.78;;
22937;SDS011;11634;42.734;23.298;2022-09-29T03:31:02;4.93;;;2.85;;
22937;SDS011;11634;42.734;23.298;2022-09-29T03:33:28;5.13;;;2.72;;
22937;SDS011;11634;42.734;23.298;2022-09-29T03:35:53;3.95;;;3.28;;
22937;SDS011;11634;42.734;23.298;2022-09-29T03:38:18;4.88;;;3.35;;
22937;SDS011;11634;42.734;23.298;2022-09-29T03:40:44;3.10;;;2.75;;
22937;SDS011;11634;42.734;23.298;2022-09-29T03:43:09;4.32;;;2.83;;
22937;SDS011;11634;42.734;23.298;2022-09-29T03:45:34;4.65;;;2.88;;
22937;SDS011;11634;42.734;23.298;2022-09-29T03:48:00;4.03;;;3.00;;
22937;SDS011;11634;42.734;23.298;2022-09-29T03:50:25;4.18;;;2.72;;
22937;SDS011;11634;42.734;23.298;2022-09-29T03:52:51;3.53;;;2.80;;
22937;SDS011;11634;42.734;23.298;2022-09-29T03:55:16;2.65;;;2.40;;
22937;SDS011;11634;42.734;23.298;2022-09-29T03:57:42;4.93;;;2.65;;
22937;SDS011;11634;42.734;23.298;2022-09-29T04:00:08;4.30;;;2.92;;
22937;SDS011;11634;42.734;23.298;2022-09-29T04:02:34;5.80;;;2.90;;
22937;SDS011;11634;42.734;23.298;2022-09-29T04:05:00;3.28;;;2.97;;
22937;SDS011;11634;42.734;23.298;2022-09-29T04:07:28;6.68;;;3.78;;
22937;SDS011;11634;42.734;23.298;2022-09-29T04:09:55;5.30;;;3.50;;
22937;SDS011;11634;42.734;23.298;2022-09-29T04:12:22;5.57;;;4.57;;
22937;SDS011;11634;42.734;23.298;2022-09-29T04:15:08;6.57;;;5.15;;
22937;SDS011;11634;42.734;23.298;2022-09-29T04:17:33;5.93;;;4.15;;
22937;SDS011;11634;42.734;23.298;2022-09-29T04:19:58;6.32;;;4.82;;
22937;SDS011;11634;42.734;23.298;2022-09-29T04:22:24;6.57;;;4.97;;
22937;SDS011;11634;42.734;23.298;2022-09-29T04:24:49;7.85;;;5.15;;
22937;SDS011;11634;42.734;23.298;2022-09-29T04:27:16;5.80;;;4.78;;
22937;SDS011;11634;42.734;23.298;2022-09-29T04:29:41;12.15;;;5.85;;
22937;SDS011;11634;42.734;23.298;2022-09-29T04:32:07;6.82;;;5.05;;
22937;SDS011;11634;42.734;23.298;2022-09-29T04:34:32;10.15;;;5.40;;
22937;SDS011;11634;42.734;23.298;2022-09-29T04:36:58;9.75;;;5.80;;
22937;SDS011;11634;42.734;23.298;2022-09-29T04:39:23;10.32;;;5.80;;
22937;SDS011;11634;42.734;23.298;2022-09-29T04:41:49;9.55;;;5.97;;
22937;SDS011;11634;42.734;23.298;2022-09-29T04:44:14;6.20;;;5.57;;
22937;SDS011;11634;42.734;23.298;2022-09-29T04:46:40;10.65;;;5.82;;
22937;SDS011;11634;42.734;23.298;2022-09-29T04:49:06;9.43;;;6.70;;
22937;SDS011;11634;42.734;23.298;2022-09-29T04:51:31;13.57;;;8.27;;
22937;SDS011;11634;42.734;23.298;2022-09-29T04:53:57;14.48;;;7.20;;
22937;SDS011;11634;42.734;23.298;2022-09-29T04:56:23;12.00;;;7.45;;
22937;SDS011;11634;42.734;23.298;2022-09-29T04:58:48;9.30;;;7.03;;
22937;SDS011;11634;42.734;23.298;2022-09-29T05:01:15;11.23;;;6.72;;
22937;SDS011;11634;42.734;23.298;2022-09-29T05:03:40;14.48;;;8.20;;
22937;SDS011;11634;42.734;23.298;2022-09-29T05:06:06;15.43;;;6.40;;
22937;SDS011;11634;42.734;23.298;2022-09-29T05:08:33;13.13;;;6.15;;
22937;SDS011;11634;42.734;23.298;2022-09-29T05:11:01;11.15;;;7.35;;
22937;SDS011;11634;42.734;23.298;2022-09-29T05:13:27;11.63;;;6.20;;
22937;SDS011;11634;42.734;23.298;2022-09-29T05:15:55;12.70;;;6.63;;
22937;SDS011;11634;42.734;23.298;2022-09-29T05:18:24;11.65;;;6.10;;
22937;SDS011;11634;42.734;23.298;2022-09-29T05:20:50;11.00;;;6.35;;
22937;SDS011;11634;42.734;23.298;2022-09-29T05:23:15;13.68;;;6.70;;
22937;SDS011;11634;42.734;23.298;2022-09-29T05:25:42;12.82;;;6.75;;
22937;SDS011;11634;42.734;23.298;2022-09-29T05:28:09;9.07;;;7.15;;
22937;SDS011;11634;42.734;23.298;2022-09-29T05:30:36;9.68;;;7.32;;
22937;SDS011;11634;42.734;23.298;2022-09-29T05:33:01;14.20;;;6.80;;
22937;SDS011;11634;42.734;23.298;2022-09-29T05:35:26;14.45;;;6.70;;
22937;SDS011;11634;42.734;23.298;2022-09-29T05:37:55;13.18;;;6.70;;
22937;SDS011;11634;42.734;23.298;2022-09-29T05:40:20;13.98;;;7.28;;
22937;SDS011;11634;42.734;23.298;2022-09-29T05:42:48;12.23;;;8.02;;
22937;SDS011;11634;42.734;23.298;2022-09-29T05:45:13;12.65;;;6.72;;
22937;SDS011;11634;42.734;23.298;2022-09-29T05:47:42;9.90;;;6.45;;
22937;SDS011;11634;42.734;23.298;2022-09-29T05:50:10;9.40;;;6.70;;
22937;SDS011;11634;42.734;23.298;2022-09-29T05:52:35;13.68;;;7.05;;
22937;SDS011;11634;42.734;23.298;2022-09-29T05:55:01;10.65;;;5.97;;
22937;SDS011;11634;42.734;23.298;2022-09-29T05:57:27;13.57;;;6.45;;
22937;SDS011;11634;42.734;23.298;2022-09-29T05:59:52;10.23;;;7.00;;
22937;SDS011;11634;42.734;23.298;2022-09-29T06:02:17;10.70;;;6.82;;
22937;SDS011;11634;42.734;23.298;2022-09-29T06:04:43;11.20;;;6.63;;
22937;SDS011;11634;42.734;23.298;2022-09-29T06:07:08;9.35;;;5.70;;
22937;SDS011;11634;42.734;23.298;2022-09-29T06:09:34;10.65;;;6.18;;
22937;SDS011;11634;42.734;23.298;2022-09-29T06:12:00;9.77;;;5.22;;
22937;SDS011;11634;42.734;23.298;2022-09-29T06:14:26;11.73;;;5.68;;
22937;SDS011;11634;42.734;23.298;2022-09-29T06:16:51;12.40;;;6.60;;
22937;SDS011;11634;42.734;23.298;2022-09-29T06:19:17;11.93;;;6.15;;
22937;SDS011;11634;42.734;23.298;2022-09-29T06:21:42;13.05;;;5.70;;
22937;SDS011;11634;42.734;23.298;2022-09-29T06:24:08;7.28;;;4.80;;
22937;SDS011;11634;42.734;23.298;2022-09-29T06:26:33;8.93;;;5.57;;
22937;SDS011;11634;42.734;23.298;2022-09-29T06:28:59;9.45;;;5.70;;
22937;SDS011;11634;42.734;23.298;2022-09-29T06:31:25;7.60;;;4.57;;
22937;SDS011;11634;42.734;23.298;2022-09-29T06:33:51;10.13;;;4.85;;
22937;SDS011;11634;42.734;23.298;2022-09-29T06:36:17;12.52;;;5.13;;
22937;SDS011;11634;42.734;23.298;2022-09-29T06:39:03;8.43;;;3.50;;
22937;SDS011;11634;42.734;23.298;2022-09-29T06:41:29;10.07;;;4.75;;
22937;SDS011;11634;42.734;23.298;2022-09-29T06:43:54;4.95;;;3.38;;
22937;SDS011;11634;42.734;23.298;2022-09-29T06:46:20;7.18;;;3.08;;
22937;SDS011;11634;42.734;23.298;2022-09-29T06:48:46;5.93;;;3.15;;
22937;SDS011;11634;42.734;23.298;2022-09-29T06:51:12;6.53;;;2.20;;
22937;SDS011;11634;42.734;23.298;2022-09-29T06:53:38;4.65;;;2.58;;
22937;SDS011;11634;42.734;23.298;2022-09-29T06:56:04;5.38;;;2.35;;
22937;SDS011;11634;42.734;23.298;2022-09-29T06:58:29;4.90;;;1.80;;
22937;SDS011;11634;42.734;23.298;2022-09-29T07:00:58;6.07;;;2.15;;
22937;SDS011;11634;42.734;23.298;2022-09-29T07:03:24;5.80;;;2.00;;
22937;SDS011;11634;42.734;23.298;2022-09-29T07:05:49;5.60;;;2.50;;
22937;SDS011;11634;42.734;23.298;2022-09-29T07:08:14;6.75;;;2.20;;
22937;SDS011;11634;42.734;23.298;2022-09-29T07:10:40;8.60;;;2.50;;
22937;SDS011;11634;42.734;23.298;2022-09-29T07:13:06;5.57;;;2.17;;
22937;SDS011;11634;42.734;23.298;2022-09-29T07:15:33;8.68;;;2.88;;
22937;SDS011;11634;42.734;23.298;2022-09-29T07:17:59;3.15;;;2.08;;
22937;SDS011;11634;42.734;23.298;2022-09-29T07:20:26;5.10;;;2.20;;
22937;SDS011;11634;42.734;23.298;2022-09-29T07:22:52;6.45;;;2.33;;
22937;SDS011;11634;42.734;23.298;2022-09-29T07:25:17;6.55;;;2.67;;
22937;SDS011;11634;42.734;23.298;2022-09-29T07:27:43;3.88;;;2.10;;
22937;SDS011;11634;42.734;23.298;2022-09-29T07:30:09;3.65;;;2.20;;
22937;SDS011;11634;42.734;23.298;2022-09-29T07:32:34;5.13;;;2.58;;
22937;SDS011;11634;42.734;23.298;2022-09-29T07:34:59;6.28;;;3.05;;
22937;SDS011;11634;42.734;23.298;2022-09-29T07:37:26;6.45;;;2.47;;
22937;SDS011;11634;42.734;23.298;2022-09-29T07:39:54;6.82;;;2.92;;
22937;SDS011;11634;42.734;23.298;2022-09-29T07:42:20;5.15;;;2.60;;
22937;SDS011;11634;42.734;23.298;2022-09-29T07:44:53;8.90;;;3.30;;
22937;SDS011;11634;42.734;23.298;2022-09-29T07:47:19;6.15;;;3.38;;
22937;SDS011;11634;42.734;23.298;2022-09-29T07:49:44;6.55;;;2.35;;
22937;SDS011;11634;42.734;23.298;2022-09-29T07:52:11;4.55;;;2.70;;
22937;SDS011;11634;42.734;23.298;2022-09-29T07:54:36;4.93;;;2.33;;
22937;SDS011;11634;42.734;23.298;2022-09-29T07:57:01;4.75;;;2.60;;
22937;SDS011;11634;42.734;23.298;2022-09-29T07:59:28;7.43;;;2.63;;
22937;SDS011;11634;42.734;23.298;2022-09-29T08:01:53;6.50;;;2.55;;
22937;SDS011;11634;42.734;23.298;2022-09-29T08:04:20;8.32;;;2.97;;
22937;SDS011;11634;42.734;23.298;2022-09-29T08:06:45;7.85;;;2.58;;
22937;SDS011;11634;42.734;23.298;2022-09-29T08:09:12;8.95;;;3.30;;
22937;SDS011;11634;42.734;23.298;2022-09-29T08:11:38;5.45;;;2.38;;
22937;SDS011;11634;42.734;23.298;2022-09-29T08:14:04;5.05;;;2.83;;
22937;SDS011;11634;42.734;23.298;2022-09-29T08:16:30;4.80;;;2.63;;
22937;SDS011;11634;42.734;23.298;2022-09-29T08:18:56;10.68;;;2.42;;
22937;SDS011;11634;42.734;23.298;2022-09-29T08:21:22;4.78;;;2.40;;
22937;SDS011;11634;42.734;23.298;2022-09-29T08:23:48;5.45;;;2.58;;
22937;SDS011;11634;42.734;23.298;2022-09-29T08:26:14;7.72;;;2.55;;
22937;SDS011;11634;42.734;23.298;2022-09-29T08:28:39;7.00;;;2.60;;
22937;SDS011;11634;42.734;23.298;2022-09-29T08:31:06;7.65;;;2.20;;
22937;SDS011;11634;42.734;23.298;2022-09-29T08:33:32;6.15;;;2.22;;
22937;SDS011;11634;42.734;23.298;2022-09-29T08:35:58;5.60;;;2.53;;
22937;SDS011;11634;42.734;23.298;2022-09-29T08:38:24;5.63;;;2.83;;
22937;SDS011;11634;42.734;23.298;2022-09-29T08:40:50;5.22;;;2.55;;
22937;SDS011;11634;42.734;23.298;2022-09-29T08:45:48;6.22;;;2.60;;
22937;SDS011;11634;42.734;23.298;2022-09-29T08:48:19;6.20;;;2.40;;
22937;SDS011;11634;42.734;23.298;2022-09-29T08:50:56;5.43;;;2.40;;
22937;SDS011;11634;42.734;23.298;2022-09-29T08:53:23;4.30;;;2.53;;
22937;SDS011;11634;42.734;23.298;2022-09-29T08:56:01;7.00;;;3.05;;
22937;SDS011;11634;42.734;23.298;2022-09-29T08:58:27;6.63;;;3.00;;
22937;SDS011;11634;42.734;23.298;2022-09-29T09:03:28;8.95;;;3.05;;
22937;SDS011;11634;42.734;23.298;2022-09-29T09:06:04;6.15;;;2.53;;
22937;SDS011;11634;42.734;23.298;2022-09-29T09:16:32;5.97;;;3.10;;
22937;SDS011;11634;42.734;23.298;2022-09-29T09:20:03;4.47;;;2.55;;
22937;SDS011;11634;42.734;23.298;2022-09-29T09:22:37;4.35;;;1.70;;
22937;SDS011;11634;42.734;23.298;2022-09-29T09:24:47;3.13;;;1.77;;
22937;SDS011;11634;42.734;23.298;2022-09-29T09:27:15;3.92;;;1.80;;
22937;SDS011;11634;42.734;23.298;2022-09-29T09:29:46;6.82;;;1.55;;
22937;SDS011;11634;42.734;23.298;2022-09-29T09:32:17;3.28;;;1.75;;
22937;SDS011;11634;42.734;23.298;2022-09-29T09:34:46;10.45;;;2.17;;
22937;SDS011;11634;42.734;23.298;2022-09-29T09:37:16;10.82;;;2.00;;
22937;SDS011;11634;42.734;23.298;2022-09-29T09:39:49;3.30;;;1.70;;
22937;SDS011;11634;42.734;23.298;2022-09-29T09:42:17;2.25;;;1.45;;
22937;SDS011;11634;42.734;23.298;2022-09-29T09:44:45;4.95;;;1.20;;
22937;SDS011;11634;42.734;23.298;2022-09-29T09:47:32;2.88;;;1.30;;
22937;SDS011;11634;42.734;23.298;2022-09-29T09:49:59;2.58;;;1.60;;
22937;SDS011;11634;42.734;23.298;2022-09-29T09:55:13;7.15;;;1.50;;
22937;SDS011;11634;42.734;23.298;2022-09-29T10:03:01;3.08;;;1.30;;
22937;SDS011;11634;42.734;23.298;2022-09-29T10:05:29;5.13;;;1.40;;
22937;SDS011;11634;42.734;23.298;2022-09-29T10:07:56;3.92;;;1.40;;
22937;SDS011;11634;42.734;23.298;2022-09-29T10:10:23;10.07;;;2.70;;
22937;SDS011;11634;42.734;23.298;2022-09-29T10:13:09;3.25;;;1.50;;
22937;SDS011;11634;42.734;23.298;2022-09-29T10:15:36;2.05;;;1.40;;
22937;SDS011;11634;42.734;23.298;2022-09-29T10:18:12;3.97;;;1.60;;
22937;SDS011;11634;42.734;23.298;2022-09-29T10:20:39;3.30;;;1.52;;
22937;SDS011;11634;42.734;23.298;2022-09-29T10:23:18;7.32;;;1.77;;
22937;SDS011;11634;42.734;23.298;2022-09-29T10:25:54;3.20;;;1.38;;
22937;SDS011;11634;42.734;23.298;2022-09-29T10:28:22;2.78;;;1.45;;
22937;SDS011;11634;42.734;23.298;2022-09-29T10:30:47;3.42;;;1.40;;
22937;SDS011;11634;42.734;23.298;2022-09-29T10:33:14;3.17;;;1.80;;
22937;SDS011;11634;42.734;23.298;2022-09-29T10:35:41;3.13;;;1.50;;
22937;SDS011;11634;42.734;23.298;2022-09-29T10:38:29;4.90;;;1.63;;
22937;SDS011;11634;42.734;23.298;2022-09-29T10:41:02;4.18;;;1.65;;
22937;SDS011;11634;42.734;23.298;2022-09-29T10:43:38;4.65;;;1.95;;
22937;SDS011;11634;42.734;23.298;2022-09-29T10:46:05;6.47;;;2.40;;
22937;SDS011;11634;42.734;23.298;2022-09-29T10:48:31;5.57;;;2.00;;
22937;SDS011;11634;42.734;23.298;2022-09-29T10:51:01;3.90;;;1.88;;
22937;SDS011;11634;42.734;23.298;2022-09-29T10:53:36;6.07;;;1.67;;
22937;SDS011;11634;42.734;23.298;2022-09-29T10:56:07;3.08;;;1.77;;
22937;SDS011;11634;42.734;23.298;2022-09-29T10:58:36;4.72;;;2.13;;
22937;SDS011;11634;42.734;23.298;2022-09-29T11:01:14;4.85;;;1.80;;
22937;SDS011;11634;42.734;23.298;2022-09-29T11:03:45;3.72;;;1.70;;
22937;SDS011;11634;42.734;23.298;2022-09-29T11:06:12;2.90;;;1.48;;
22937;SDS011;11634;42.734;23.298;2022-09-29T11:11:27;3.30;;;1.63;;
22937;SDS011;11634;42.734;23.298;2022-09-29T11:13:54;3.17;;;1.67;;
22937;SDS011;11634;42.734;23.298;2022-09-29T11:16:34;3.85;;;1.90;;
22937;SDS011;11634;42.734;23.298;2022-09-29T11:19:11;5.47;;;1.50;;
22937;SDS011;11634;42.734;23.298;2022-09-29T11:26:57;2.05;;;1.17;;
22937;SDS011;11634;42.734;23.298;2022-09-29T11:29:49;1.70;;;1.40;;
22937;SDS011;11634;42.734;23.298;2022-09-29T11:32:31;1.90;;;1.20;;
22937;SDS011;11634;42.734;23.298;2022-09-29T11:35:02;5.45;;;1.80;;
22937;SDS011;11634;42.734;23.298;2022-09-29T11:37:42;2.30;;;1.40;;
22937;SDS011;11634;42.734;23.298;2022-09-29T11:40:31;2.03;;;1.33;;
22937;SDS011;11634;42.734;23.298;2022-09-29T11:45:43;2.08;;;1.63;;
22937;SDS011;11634;42.734;23.298;2022-09-29T11:48:19;3.95;;;1.40;;
22937;SDS011;11634;42.734;23.298;2022-09-29T11:50:52;2.63;;;1.40;;
22937;SDS011;11634;42.734;23.298;2022-09-29T12:01:29;3.08;;;1.50;;
22937;SDS011;11634;42.734;23.298;2022-09-29T12:09:12;2.65;;;1.67;;
22937;SDS011;11634;42.734;23.298;2022-09-29T12:16:53;3.42;;;1.77;;
22937;SDS011;11634;42.734;23.298;2022-09-29T12:19:22;3.80;;;1.90;;
22937;SDS011;11634;42.734;23.298;2022-09-29T12:21:50;3.90;;;1.77;;
22937;SDS011;11634;42.734;23.298;2022-09-29T12:26:44;1.42;;;1.33;;
22937;SDS011;11634;42.734;23.298;2022-09-29T12:29:30;2.55;;;1.50;;
22937;SDS011;11634;42.734;23.298;2022-09-29T12:31:57;3.42;;;1.67;;
22937;SDS011;11634;42.734;23.298;2022-09-29T12:40:09;3.05;;;1.60;;
22937;SDS011;11634;42.734;23.298;2022-09-29T12:45:13;4.57;;;1.58;;
22937;SDS011;11634;42.734;23.298;2022-09-29T12:47:48;2.15;;;1.38;;
22937;SDS011;11634;42.734;23.298;2022-09-29T12:50:18;3.92;;;1.73;;
22937;SDS011;11634;42.734;23.298;2022-09-29T12:58:01;3.50;;;1.58;;
22937;SDS011;11634;42.734;23.298;2022-09-29T13:00:29;1.85;;;1.38;;
22937;SDS011;11634;42.734;23.298;2022-09-29T13:03:06;1.80;;;1.40;;
22937;SDS011;11634;42.734;23.298;2022-09-29T13:14:07;1.70;;;1.30;;
22937;SDS011;11634;42.734;23.298;2022-09-29T13:29:17;2.47;;;1.60;;
22937;SDS011;11634;42.734;23.298;2022-09-29T13:31:44;3.65;;;1.70;;
22937;SDS011;11634;42.734;23.298;2022-09-29T13:34:21;2.95;;;1.48;;
22937;SDS011;11634;42.734;23.298;2022-09-29T13:36:49;1.77;;;1.48;;
22937;SDS011;11634;42.734;23.298;2022-09-29T13:39:25;1.85;;;1.50;;
22937;SDS011;11634;42.734;23.298;2022-09-29T13:41:52;3.22;;;1.60;;
22937;SDS011;11634;42.734;23.298;2022-09-29T13:44:22;2.28;;;1.50;;
22937;SDS011;11634;42.734;23.298;2022-09-29T13:46:47;2.97;;;1.20;;
22937;SDS011;11634;42.734;23.298;2022-09-29T13:49:14;2.63;;;1.50;;
22937;SDS011;11634;42.734;23.298;2022-09-29T13:56:37;5.32;;;1.83;;
22937;SDS011;11634;42.734;23.298;2022-09-29T13:59:03;2.47;;;1.55;;
22937;SDS011;11634;42.734;23.298;2022-09-29T14:01:33;7.05;;;1.92;;
22937;SDS011;11634;42.734;23.298;2022-09-29T14:04:22;2.17;;;1.70;;
22937;SDS011;11634;42.734;23.298;2022-09-29T14:06:45;1.60;;;1.10;;
22937;SDS011;11634;42.734;23.298;2022-09-29T14:09:20;1.20;;;1.10;;
22937;SDS011;11634;42.734;23.298;2022-09-29T14:11:50;5.63;;;1.65;;
22937;SDS011;11634;42.734;23.298;2022-09-29T14:14:18;6.63;;;1.80;;
22937;SDS011;11634;42.734;23.298;2022-09-29T14:16:55;4.15;;;1.67;;
22937;SDS011;11634;42.734;23.298;2022-09-29T14:29:46;7.35;;;2.28;;
22937;SDS011;11634;42.734;23.298;2022-09-29T14:32:14;2.90;;;1.88;;
22937;SDS011;11634;42.734;23.298;2022-09-29T14:34:42;2.85;;;1.38;;
22937;SDS011;11634;42.734;23.298;2022-09-29T14:37:08;4.43;;;1.45;;
22937;SDS011;11634;42.734;23.298;2022-09-29T14:39:38;2.85;;;1.58;;
22937;SDS011;11634;42.734;23.298;2022-09-29T14:42:04;4.80;;;1.67;;
22937;SDS011;11634;42.734;23.298;2022-09-29T14:44:39;3.88;;;1.33;;
22937;SDS011;11634;42.734;23.298;2022-09-29T14:53:19;4.45;;;2.13;;
22937;SDS011;11634;42.734;23.298;2022-09-29T15:01:29;4.15;;;2.00;;
22937;SDS011;11634;42.734;23.298;2022-09-29T15:04:04;4.20;;;2.33;;
22937;SDS011;11634;42.734;23.298;2022-09-29T15:06:32;5.95;;;2.40;;
22937;SDS011;11634;42.734;23.298;2022-09-29T15:11:34;5.07;;;2.15;;
22937;SDS011;11634;42.734;23.298;2022-09-29T15:14:25;3.92;;;2.60;;
22937;SDS011;11634;42.734;23.298;2022-09-29T15:27:02;3.28;;;2.80;;
22937;SDS011;11634;42.734;23.298;2022-09-29T15:29:28;3.40;;;2.85;;
22937;SDS011;11634;42.734;23.298;2022-09-29T15:31:54;4.38;;;3.60;;
22937;SDS011;11634;42.734;23.298;2022-09-29T15:34:24;3.78;;;2.80;;
22937;SDS011;11634;42.734;23.298;2022-09-29T15:36:50;7.57;;;3.72;;
22937;SDS011;11634;42.734;23.298;2022-09-29T15:42:15;8.27;;;4.35;;
22937;SDS011;11634;42.734;23.298;2022-09-29T15:44:45;6.50;;;4.43;;
22937;SDS011;11634;42.734;23.298;2022-09-29T15:47:19;6.10;;;4.30;;
22937;SDS011;11634;42.734;23.298;2022-09-29T15:49:48;5.88;;;3.88;;
22937;SDS011;11634;42.734;23.298;2022-09-29T15:52:15;5.90;;;4.60;;
22937;SDS011;11634;42.734;23.298;2022-09-29T15:54:42;8.20;;;4.80;;
22937;SDS011;11634;42.734;23.298;2022-09-29T16:05:18;7.65;;;4.47;;
22937;SDS011;11634;42.734;23.298;2022-09-29T16:07:59;5.75;;;4.53;;
22937;SDS011;11634;42.734;23.298;2022-09-29T16:10:31;6.63;;;4.22;;
22937;SDS011;11634;42.734;23.298;2022-09-29T16:13:02;12.25;;;5.05;;
22937;SDS011;11634;42.734;23.298;2022-09-29T16:15:39;9.10;;;5.05;;
22937;SDS011;11634;42.734;23.298;2022-09-29T16:18:17;6.97;;;4.82;;
22937;SDS011;11634;42.734;23.298;2022-09-29T16:20:44;8.95;;;5.60;;
22937;SDS011;11634;42.734;23.298;2022-09-29T16:25:44;7.18;;;4.03;;
22937;SDS011;11634;42.734;23.298;2022-09-29T16:28:23;6.57;;;3.10;;
22937;SDS011;11634;42.734;23.298;2022-09-29T16:30:59;5.07;;;3.13;;
22937;SDS011;11634;42.734;23.298;2022-09-29T16:33:26;3.40;;;2.50;;
22937;SDS011;11634;42.734;23.298;2022-09-29T16:38:49;5.30;;;2.95;;
22937;SDS011;11634;42.734;23.298;2022-09-29T16:41:27;5.05;;;1.85;;
22937;SDS011;11634;42.734;23.298;2022-09-29T16:46:47;3.20;;;2.05;;
22937;SDS011;11634;42.734;23.298;2022-09-29T16:49:14;5.75;;;2.22;;
22937;SDS011;11634;42.734;23.298;2022-09-29T16:51:42;3.53;;;2.13;;
22937;SDS011;11634;42.734;23.298;2022-09-29T16:54:12;3.55;;;2.55;;
22937;SDS011;11634;42.734;23.298;2022-09-29T16:56:40;6.65;;;3.05;;
22937;SDS011;11634;42.734;23.298;2022-09-29T16:59:13;6.25;;;2.75;;
22937;SDS011;11634;42.734;23.298;2022-09-29T17:01:41;6.22;;;3.40;;
22937;SDS011;11634;42.734;23.298;2022-09-29T17:04:07;4.90;;;3.38;;
22937;SDS011;11634;42.734;23.298;2022-09-29T17:06:32;7.45;;;3.92;;
22937;SDS011;11634;42.734;23.298;2022-09-29T17:08:58;9.45;;;4.30;;
22937;SDS011;11634;42.734;23.298;2022-09-29T17:11:24;6.82;;;4.43;;
22937;SDS011;11634;42.734;23.298;2022-09-29T17:13:53;6.97;;;4.75;;
22937;SDS011;11634;42.734;23.298;2022-09-29T17:16:28;6.80;;;4.00;;
22937;SDS011;11634;42.734;23.298;2022-09-29T17:18:55;9.93;;;4.57;;
22937;SDS011;11634;42.734;23.298;2022-09-29T17:21:24;5.75;;;4.68;;
22937;SDS011;11634;42.734;23.298;2022-09-29T17:23:50;6.85;;;5.40;;
22937;SDS011;11634;42.734;23.298;2022-09-29T17:26:17;7.18;;;5.05;;
22937;SDS011;11634;42.734;23.298;2022-09-29T17:29:02;7.20;;;5.30;;
22937;SDS011;11634;42.734;23.298;2022-09-29T17:31:37;6.10;;;5.18;;